Time;durP1;ratioP1;P1;durP2;ratioP2;P2;SDS_P1;SDS_P2;PMS_P1;PMS_P2;Temp;Humidity;BMP_temperature;BMP_pressure;BME280_temperature;BME280_humidity;BME280_pressure;Samples;Min_cycle;Max_cycle;Signal;HPM_P1;HPM_P2
2023/09/18 00:02:31;;;;;;;;;;;22.20;71.70;;;;;;10350650;28;20777;-71
2023/09/18 00:07:33;;;;;;;;;;;22.20;71.80;;;;;;10351951;28;19938;-71
2023/09/18 00:12:35;;;;;;;;;;;22.20;71.70;;;;;;10350162;28;20349;-72
2023/09/18 00:17:36;;;;;;;;;;;22.20;71.70;;;;;;10352638;28;19934;-71
2023/09/18 00:22:38;;;;;;;;;;;22.20;71.70;;;;;;10352111;28;20419;-71
2023/09/18 00:27:40;;;;;;;;;;;22.20;71.70;;;;;;10344502;28;19956;-71
2023/09/18 00:32:42;;;;;;;;;;;22.20;71.70;;;;;;10346394;28;20390;-71
2023/09/18 00:37:44;;;;;;;;;;;22.20;71.70;;;;;;10354021;28;20017;-71
2023/09/18 00:42:46;;;;;;;;;;;22.10;71.60;;;;;;10341039;28;20015;-71
2023/09/18 00:47:48;;;;;;;;;;;22.20;71.70;;;;;;10343776;28;19934;-72
2023/09/18 00:52:50;;;;;;;;;;;22.10;71.70;;;;;;10338921;28;20320;-70
2023/09/18 00:57:54;;;;;;;;;;;22.10;71.80;;;;;;10333464;28;20308;-71
2023/09/18 01:02:57;;;;;;;;;;;22.10;71.90;;;;;;10357500;28;20421;-72
2023/09/18 01:07:59;;;;;;;;;;;22.10;71.80;;;;;;10350856;28;20392;-71
2023/09/18 01:13:01;;;;;;;;;;;22.10;72.90;;;;;;10347797;28;19934;-72
2023/09/18 01:18:03;;;;;;;;;;;22.10;71.90;;;;;;10361539;28;19934;-71
2023/09/18 01:23:05;;;;;;;;;;;22.10;71.90;;;;;;10351484;28;20193;-71
2023/09/18 01:28:07;;;;;;;;;;;22.10;72.00;;;;;;10350612;28;20395;-72
2023/09/18 01:33:09;;;;;;;;;;;22.00;71.90;;;;;;10345050;28;19939;-71
2023/09/18 01:38:11;;;;;;;;;;;22.10;72.00;;;;;;10342810;28;19933;-71
2023/09/18 01:43:13;;;;;;;;;;;22.00;72.00;;;;;;10351630;28;20036;-71
2023/09/18 01:48:15;;;;;;;;;;;22.00;71.90;;;;;;10335121;28;20501;-70
2023/09/18 01:53:17;;;;;;;;;;;22.00;72.00;;;;;;10332105;28;19934;-71
2023/09/18 01:58:19;;;;;;;;;;;22.00;71.90;;;;;;10354861;28;20387;-71
2023/09/18 02:03:22;;;;;;;;;;;22.00;71.90;;;;;;10342770;28;19934;-71
2023/09/18 02:08:44;;;;;;;;;;;22.00;71.90;;;;;;10331824;28;20905;-71
2023/09/18 02:13:45;;;;;;;;;;;22.00;71.90;;;;;;10338426;28;20521;-71
2023/09/18 02:18:48;;;;;;;;;;;22.00;71.90;;;;;;10355533;28;19969;-71
2023/09/18 02:23:51;;;;;;;;;;;22.00;71.90;;;;;;10336945;28;19934;-72
2023/09/18 02:28:54;;;;;;;;;;;22.00;71.80;;;;;;10331518;28;20134;-72
2023/09/18 02:33:59;;;;;;;;;;;22.00;71.70;;;;;;10367146;28;19933;-71
2023/09/18 02:39:02;;;;;;;;;;;22.10;71.80;;;;;;10353194;28;20468;-71
2023/09/18 02:44:05;;;;;;;;;;;22.00;71.80;;;;;;10354830;28;19940;-72
2023/09/18 02:49:06;;;;;;;;;;;22.10;71.80;;;;;;10350347;28;20044;-71
2023/09/18 02:54:08;;;;;;;;;;;22.10;71.80;;;;;;10367931;28;19941;-71
2023/09/18 02:59:10;;;;;;;;;;;22.10;71.70;;;;;;10353507;28;19956;-71
2023/09/18 03:04:12;;;;;;;;;;;22.10;71.70;;;;;;10337165;28;19967;-71
2023/09/18 03:09:13;;;;;;;;;;;22.10;71.60;;;;;;10341133;28;20024;-71
2023/09/18 03:14:15;;;;;;;;;;;22.10;71.60;;;;;;10353546;28;19940;-71
2023/09/18 03:19:17;;;;;;;;;;;22.10;71.50;;;;;;10346085;28;19945;-71
2023/09/18 03:24:20;;;;;;;;;;;22.10;71.60;;;;;;10344615;28;19957;-71
2023/09/18 03:29:23;;;;;;;;;;;22.10;71.40;;;;;;10349803;28;20019;-71
2023/09/18 03:34:28;;;;;;;;;;;22.10;71.50;;;;;;10340462;28;19934;-71
2023/09/18 03:39:29;;;;;;;;;;;22.10;71.50;;;;;;10354639;28;20023;-72
2023/09/18 03:44:31;;;;;;;;;;;22.10;71.60;;;;;;10369701;28;20029;-72
2023/09/18 03:49:33;;;;;;;;;;;22.10;71.50;;;;;;10350503;28;19973;-71
2023/09/18 03:54:36;;;;;;;;;;;22.10;71.50;;;;;;10356989;28;19938;-71
2023/09/18 03:59:37;;;;;;;;;;;22.10;71.60;;;;;;10350775;28;21997;-72
2023/09/18 04:04:39;;;;;;;;;;;22.10;71.70;;;;;;10352987;28;20000;-71
2023/09/18 04:09:41;;;;;;;;;;;22.10;71.70;;;;;;10345298;28;20286;-71
2023/09/18 04:14:43;;;;;;;;;;;22.00;71.70;;;;;;10352531;28;20056;-72
2023/09/18 04:19:44;;;;;;;;;;;22.10;71.80;;;;;;10335087;28;19933;-71
2023/09/18 04:24:46;;;;;;;;;;;22.10;71.80;;;;;;10352437;28;19944;-71
2023/09/18 04:29:48;;;;;;;;;;;22.00;71.80;;;;;;10340541;28;19933;-71
2023/09/18 04:34:49;;;;;;;;;;;22.00;71.90;;;;;;10337825;28;19940;-72
2023/09/18 04:39:53;;;;;;;;;;;22.00;71.90;;;;;;10357241;28;19941;-71
2023/09/18 04:44:55;;;;;;;;;;;22.00;71.90;;;;;;10351594;28;20522;-71
2023/09/18 04:49:59;;;;;;;;;;;22.00;72.10;;;;;;10770659;22;19934;-48
2023/09/18 04:55:01;;;;;;;;;;;22.00;72.00;;;;;;10338624;28;20274;-46
2023/09/18 05:00:03;;;;;;;;;;;22.00;71.90;;;;;;10338434;28;19934;-46
2023/09/18 05:05:18;;;;;;;;;;;22.00;72.10;;;;;;10348547;28;19934;-46
2023/09/18 05:10:20;;;;;;;;;;;22.00;73.00;;;;;;10355113;28;19988;-53
2023/09/18 05:15:21;;;;;;;;;;;22.00;73.10;;;;;;10337642;28;19934;-46
2023/09/18 05:20:24;;;;;;;;;;;22.00;73.20;;;;;;10351913;28;19934;-47
2023/09/18 05:25:33;;;;;;;;;;;22.00;73.50;;;;;;10336490;28;20514;-46
2023/09/18 05:30:38;;;;;;;;;;;22.10;73.50;;;;;;10351254;28;20000;-48
2023/09/18 05:35:41;;;;;;;;;;;22.10;73.40;;;;;;10351134;28;19934;-44
2023/09/18 05:40:44;;;;;;;;;;;22.10;73.70;;;;;;10367861;28;19941;-47
2023/09/18 05:45:46;;;;;;;;;;;22.10;73.60;;;;;;10310354;28;19941;-45
2023/09/18 05:50:48;;;;;;;;;;;22.10;73.10;;;;;;10351546;28;19940;-46
2023/09/18 05:55:50;;;;;;;;;;;22.10;73.40;;;;;;10353244;28;19938;-44
2023/09/18 06:00:52;;;;;;;;;;;22.10;73.60;;;;;;10323116;28;19940;-45
2023/09/18 06:05:53;;;;;;;;;;;22.10;73.20;;;;;;10344350;28;20142;-46
2023/09/18 06:10:56;;;;;;;;;;;22.10;73.40;;;;;;10356270;28;19941;-49
2023/09/18 06:15:57;;;;;;;;;;;22.10;73.60;;;;;;10355276;28;20140;-47
2023/09/18 06:20:59;;;;;;;;;;;22.10;73.40;;;;;;10355776;28;19938;-46
2023/09/18 06:26:01;;;;;;;;;;;22.10;73.50;;;;;;10362776;28;19940;-48
2023/09/18 06:31:03;;;;;;;;;;;22.10;73.50;;;;;;10337403;28;20144;-48
2023/09/18 06:36:05;;;;;;;;;;;22.10;73.40;;;;;;10351909;28;20041;-48
2023/09/18 06:41:06;;;;;;;;;;;22.10;73.60;;;;;;10360442;28;19933;-51
2023/09/18 06:46:08;;;;;;;;;;;22.10;73.60;;;;;;10359579;28;19933;-50
2023/09/18 06:51:10;;;;;;;;;;;22.10;73.40;;;;;;10352985;28;19938;-48
2023/09/18 06:56:12;;;;;;;;;;;22.10;73.10;;;;;;10353862;28;19940;-45
2023/09/18 07:01:15;;;;;;;;;;;22.10;73.20;;;;;;10346723;28;20131;-49
2023/09/18 07:06:18;;;;;;;;;;;22.10;73.30;;;;;;10353549;28;19934;-46
2023/09/18 07:11:20;;;;;;;;;;;22.10;73.40;;;;;;10355382;28;20582;-51
2023/09/18 07:16:25;;;;;;;;;;;22.10;73.40;;;;;;10353876;28;19941;-49
2023/09/18 07:21:28;;;;;;;;;;;22.10;73.70;;;;;;10341519;28;19939;-47
2023/09/18 07:26:30;;;;;;;;;;;22.10;73.60;;;;;;10341373;28;20020;-47
2023/09/18 07:31:32;;;;;;;;;;;22.10;73.70;;;;;;10376185;28;19980;-49
2023/09/18 07:36:33;;;;;;;;;;;22.10;73.70;;;;;;10356532;28;20218;-47
2023/09/18 07:41:35;;;;;;;;;;;22.10;73.90;;;;;;10354562;28;20397;-45
2023/09/18 07:46:37;;;;;;;;;;;22.20;73.90;;;;;;10353363;28;19937;-46
2023/09/18 07:51:39;;;;;;;;;;;22.20;74.00;;;;;;10332810;28;20294;-48
2023/09/18 07:56:43;;;;;;;;;;;22.10;73.80;;;;;;10340504;28;19941;-49
2023/09/18 08:01:45;;;;;;;;;;;22.10;73.80;;;;;;10333647;28;20153;-53
2023/09/18 08:06:47;;;;;;;;;;;22.20;74.10;;;;;;10335143;28;19934;-46
2023/09/18 08:11:49;;;;;;;;;;;22.10;74.00;;;;;;10352141;28;19934;-47
2023/09/18 08:16:57;;;;;;;;;;;22.10;74.10;;;;;;10333478;28;19933;-50
2023/09/18 08:22:03;;;;;;;;;;;22.10;74.00;;;;;;10354957;28;20080;-49
2023/09/18 08:27:06;;;;;;;;;;;22.10;73.80;;;;;;10350688;28;20449;-48
2023/09/18 08:32:08;;;;;;;;;;;22.10;73.80;;;;;;10351184;28;20008;-48
2023/09/18 08:37:10;;;;;;;;;;;22.10;73.60;;;;;;10339042;28;19934;-47
2023/09/18 08:42:13;;;;;;;;;;;22.10;74.10;;;;;;10349982;28;19940;-49
2023/09/18 08:47:15;;;;;;;;;;;22.10;73.70;;;;;;10352165;28;20329;-50
2023/09/18 08:52:17;;;;;;;;;;;22.10;73.80;;;;;;10332842;28;19988;-47
2023/09/18 08:57:19;;;;;;;;;;;22.10;73.70;;;;;;10350963;28;20324;-49
2023/09/18 09:02:21;;;;;;;;;;;22.00;73.70;;;;;;10357004;28;19973;-45
2023/09/18 09:07:23;;;;;;;;;;;22.00;73.70;;;;;;10357266;28;20020;-49
2023/09/18 09:12:44;;;;;;;;;;;22.10;73.80;;;;;;10356257;28;20393;-50
2023/09/18 09:17:46;;;;;;;;;;;22.10;74.30;;;;;;10358157;28;19933;-46
2023/09/18 09:22:50;;;;;;;;;;;22.10;75.10;;;;;;10339529;28;19934;-46
2023/09/18 09:27:53;;;;;;;;;;;22.20;74.80;;;;;;10359100;28;20032;-46
2023/09/18 09:32:56;;;;;;;;;;;22.20;74.30;;;;;;10348062;28;19934;-46
2023/09/18 09:38:00;;;;;;;;;;;22.20;74.20;;;;;;10332256;28;20012;-45
2023/09/18 09:43:04;;;;;;;;;;;22.20;74.20;;;;;;10349742;28;19934;-46
2023/09/18 09:48:06;;;;;;;;;;;22.30;73.90;;;;;;10349070;28;19989;-45
2023/09/18 09:53:08;;;;;;;;;;;22.30;73.90;;;;;;10331838;28;19941;-47
2023/09/18 09:58:11;;;;;;;;;;;22.30;73.70;;;;;;10337025;28;20386;-44
2023/09/18 10:03:14;;;;;;;;;;;22.30;73.60;;;;;;10345695;28;19978;-49
2023/09/18 10:08:18;;;;;;;;;;;22.40;73.60;;;;;;10336569;28;19934;-49
2023/09/18 10:13:26;;;;;;;;;;;22.40;73.50;;;;;;10351188;28;20321;-51
2023/09/18 10:18:28;;;;;;;;;;;22.40;73.40;;;;;;10337499;28;19934;-51
2023/09/18 10:23:50;;;;;;;;;;;22.30;73.40;;;;;;10353533;28;19933;-64
2023/09/18 10:28:58;;;;;;;;;;;22.30;73.40;;;;;;10333332;28;19934;-49
2023/09/18 10:34:01;;;;;;;;;;;22.30;73.60;;;;;;10338459;28;20464;-45
2023/09/18 10:39:08;;;;;;;;;;;22.30;74.20;;;;;;10327722;28;20312;-48
2023/09/18 10:44:10;;;;;;;;;;;22.40;74.20;;;;;;10355542;28;19934;-45
2023/09/18 10:49:12;;;;;;;;;;;22.40;74.10;;;;;;10348694;28;20423;-50
2023/09/18 10:54:20;;;;;;;;;;;22.40;73.80;;;;;;10346390;28;19938;-49
2023/09/18 10:59:22;;;;;;;;;;;22.40;73.90;;;;;;10327948;28;19934;-46
2023/09/18 11:04:25;;;;;;;;;;;22.50;73.60;;;;;;10354223;28;20429;-47
2023/09/18 11:09:28;;;;;;;;;;;22.50;73.80;;;;;;10334764;28;20051;-48
2023/09/18 11:15:06;;;;;;;;;;;22.50;73.60;;;;;;10349723;28;19941;-48
2023/09/18 11:20:14;;;;;;;;;;;22.50;73.50;;;;;;10286726;28;19934;-48
2023/09/18 11:25:29;;;;;;;;;;;22.50;73.40;;;;;;10335628;28;19938;-49
2023/09/18 11:30:32;;;;;;;;;;;22.50;73.30;;;;;;10327494;28;20316;-48
2023/09/18 11:35:38;;;;;;;;;;;22.50;73.30;;;;;;10352292;28;19933;-49
2023/09/18 11:40:41;;;;;;;;;;;22.60;73.10;;;;;;10352566;28;19934;-47
2023/09/18 11:45:43;;;;;;;;;;;22.60;73.10;;;;;;10352856;28;20419;-50
2023/09/18 11:50:46;;;;;;;;;;;22.60;73.00;;;;;;10351072;28;19940;-46
2023/09/18 11:55:48;;;;;;;;;;;22.60;72.90;;;;;;10318263;28;19933;-48
2023/09/18 12:00:50;;;;;;;;;;;22.60;73.90;;;;;;10348960;28;19933;-47
2023/09/18 12:05:53;;;;;;;;;;;22.70;73.00;;;;;;10351117;28;19933;-47
2023/09/18 12:10:55;;;;;;;;;;;22.60;72.90;;;;;;10342068;28;19973;-56
2023/09/18 12:15:58;;;;;;;;;;;22.70;72.90;;;;;;10351722;28;19944;-52
2023/09/18 12:21:04;;;;;;;;;;;22.70;72.90;;;;;;10350969;28;20036;-49
2023/09/18 12:26:09;;;;;;;;;;;22.70;72.90;;;;;;10340345;28;20416;-47
2023/09/18 12:31:11;;;;;;;;;;;22.70;72.90;;;;;;10349371;28;19984;-49
2023/09/18 12:36:14;;;;;;;;;;;22.70;72.80;;;;;;10350877;28;20384;-44
2023/09/18 12:41:16;;;;;;;;;;;22.70;72.90;;;;;;10350502;28;19941;-47
2023/09/18 12:46:19;;;;;;;;;;;22.60;72.80;;;;;;10334254;28;19934;-49
2023/09/18 12:51:28;;;;;;;;;;;22.60;72.80;;;;;;10349718;28;19973;-49
2023/09/18 12:56:32;;;;;;;;;;;22.60;72.80;;;;;;10352866;28;19933;-49
2023/09/18 13:01:34;;;;;;;;;;;22.60;72.80;;;;;;10349383;28;20036;-48
2023/09/18 13:06:38;;;;;;;;;;;22.60;72.80;;;;;;10332552;28;19956;-48
2023/09/18 13:11:52;;;;;;;;;;;22.60;72.80;;;;;;10332543;28;19941;-48
2023/09/18 13:17:00;;;;;;;;;;;22.60;72.80;;;;;;10350216;28;20063;-49
2023/09/18 13:22:04;;;;;;;;;;;22.60;72.70;;;;;;10339129;28;20468;-48
2023/09/18 13:27:06;;;;;;;;;;;22.60;72.70;;;;;;10333447;28;20037;-47
2023/09/18 13:32:08;;;;;;;;;;;22.60;72.70;;;;;;10349486;28;20122;-48
2023/09/18 13:37:10;;;;;;;;;;;22.70;72.70;;;;;;10321792;28;19934;-47
2023/09/18 13:42:12;;;;;;;;;;;22.70;72.70;;;;;;10337142;28;20364;-47
2023/09/18 13:47:13;;;;;;;;;;;22.60;72.70;;;;;;10354239;28;19934;-50
2023/09/18 13:52:16;;;;;;;;;;;22.60;72.70;;;;;;10355062;28;20081;-48
2023/09/18 13:57:18;;;;;;;;;;;22.60;72.60;;;;;;10356618;28;19941;-49
2023/09/18 14:02:20;;;;;;;;;;;22.70;72.40;;;;;;10338408;28;19934;-51
2023/09/18 14:07:22;;;;;;;;;;;22.70;72.40;;;;;;10355645;28;19934;-50
2023/09/18 14:12:24;;;;;;;;;;;22.70;72.40;;;;;;10346327;28;19940;-49
2023/09/18 14:17:26;;;;;;;;;;;22.70;72.20;;;;;;10335711;28;19933;-48
2023/09/18 14:22:28;;;;;;;;;;;22.70;72.30;;;;;;10354925;28;20277;-49
2023/09/18 14:27:30;;;;;;;;;;;22.70;72.10;;;;;;10343673;28;19933;-47
2023/09/18 14:32:32;;;;;;;;;;;22.70;72.10;;;;;;10354722;28;20334;-47
2023/09/18 14:37:34;;;;;;;;;;;22.70;72.10;;;;;;10353153;28;19934;-48
2023/09/18 14:42:36;;;;;;;;;;;22.70;72.00;;;;;;10351287;28;19941;-48
2023/09/18 14:47:38;;;;;;;;;;;22.70;72.00;;;;;;10347335;28;20016;-47
2023/09/18 14:52:40;;;;;;;;;;;22.70;72.00;;;;;;10348975;28;19940;-48
2023/09/18 14:57:42;;;;;;;;;;;22.70;72.00;;;;;;10336171;28;20408;-49
2023/09/18 15:02:44;;;;;;;;;;;22.70;72.00;;;;;;10351132;28;19987;-46
2023/09/18 15:07:45;;;;;;;;;;;22.70;71.90;;;;;;10351159;28;20392;-46
2023/09/18 15:12:47;;;;;;;;;;;22.60;71.80;;;;;;10352675;28;19940;-48
2023/09/18 15:17:51;;;;;;;;;;;22.60;71.80;;;;;;10353638;28;19934;-48
2023/09/18 15:22:55;;;;;;;;;;;22.70;71.70;;;;;;10353734;28;19965;-50
2023/09/18 15:27:57;;;;;;;;;;;22.60;71.70;;;;;;10333697;28;20103;-47
2023/09/18 15:32:59;;;;;;;;;;;22.60;71.60;;;;;;10352412;28;19933;-47
2023/09/18 15:38:01;;;;;;;;;;;22.60;71.50;;;;;;10351859;28;20040;-46
2023/09/18 15:43:02;;;;;;;;;;;22.60;71.50;;;;;;10334969;28;20325;-47
2023/09/18 15:48:04;;;;;;;;;;;22.60;71.60;;;;;;10351661;28;19933;-46
2023/09/18 15:53:06;;;;;;;;;;;22.50;71.60;;;;;;10352077;28;19941;-46
2023/09/18 15:58:08;;;;;;;;;;;22.50;71.60;;;;;;10352744;28;20785;-49
2023/09/18 16:03:10;;;;;;;;;;;22.50;71.70;;;;;;10350228;28;19941;-48
2023/09/18 16:08:13;;;;;;;;;;;22.50;71.70;;;;;;10351680;28;19933;-52
2023/09/18 16:13:16;;;;;;;;;;;22.50;71.80;;;;;;10332029;28;19937;-59
2023/09/18 16:18:17;;;;;;;;;;;22.50;71.70;;;;;;10351080;28;20487;-50
2023/09/18 16:23:19;;;;;;;;;;;22.50;71.70;;;;;;10351459;28;20634;-47
2023/09/18 16:28:21;;;;;;;;;;;22.50;72.10;;;;;;10351184;28;19933;-51
2023/09/18 16:33:25;;;;;;;;;;;22.40;71.60;;;;;;10333557;28;19933;-48
2023/09/18 16:38:27;;;;;;;;;;;22.40;71.70;;;;;;10322806;28;20877;-47
2023/09/18 16:43:29;;;;;;;;;;;22.40;71.80;;;;;;10320464;28;19933;-49
2023/09/18 16:48:37;;;;;;;;;;;22.40;71.80;;;;;;10337325;28;20409;-45
2023/09/18 16:53:38;;;;;;;;;;;22.40;71.70;;;;;;10347285;28;20039;-50
2023/09/18 16:58:41;;;;;;;;;;;22.40;71.70;;;;;;10348091;28;19933;-48
2023/09/18 17:03:45;;;;;;;;;;;22.40;71.60;;;;;;10327048;28;19934;-50
2023/09/18 17:08:48;;;;;;;;;;;22.50;72.30;;;;;;10341089;28;20032;-49
2023/09/18 17:13:51;;;;;;;;;;;22.70;72.20;;;;;;10337155;28;19934;-47
2023/09/18 17:18:56;;;;;;;;;;;22.90;73.00;;;;;;10351756;28;19957;-52
2023/09/18 17:23:57;;;;;;;;;;;22.90;71.80;;;;;;10349552;28;20345;-47
2023/09/18 17:29:00;;;;;;;;;;;22.90;71.80;;;;;;10350464;28;19941;-47
2023/09/18 17:34:02;;;;;;;;;;;22.90;71.80;;;;;;10345568;28;19933;-46
2023/09/18 17:39:05;;;;;;;;;;;22.90;71.80;;;;;;10345124;28;19941;-45
2023/09/18 17:44:06;;;;;;;;;;;22.90;71.80;;;;;;10354505;28;19973;-44
2023/09/18 17:49:09;;;;;;;;;;;22.80;71.90;;;;;;10346381;28;20008;-48
2023/09/18 17:54:11;;;;;;;;;;;22.80;71.70;;;;;;10346365;28;20107;-45
2023/09/18 17:59:12;;;;;;;;;;;22.80;71.70;;;;;;10335629;28;20404;-47
2023/09/18 18:04:14;;;;;;;;;;;22.80;71.70;;;;;;10342693;28;19933;-48
2023/09/18 18:09:16;;;;;;;;;;;22.80;71.70;;;;;;10336558;28;19934;-45
2023/09/18 18:14:18;;;;;;;;;;;22.70;71.60;;;;;;10326989;28;20401;-54
2023/09/18 18:19:20;;;;;;;;;;;22.80;71.60;;;;;;10339688;28;19945;-51
2023/09/18 18:24:22;;;;;;;;;;;22.70;71.60;;;;;;10352811;28;20008;-48
2023/09/18 18:29:25;;;;;;;;;;;22.70;71.60;;;;;;10341855;28;19934;-47
2023/09/18 18:34:27;;;;;;;;;;;22.70;71.60;;;;;;10325566;28;19933;-48
2023/09/18 18:39:29;;;;;;;;;;;22.70;71.70;;;;;;10355320;28;20320;-45
2023/09/18 18:44:31;;;;;;;;;;;22.80;71.60;;;;;;10350350;28;20317;-45
2023/09/18 18:49:33;;;;;;;;;;;22.70;71.50;;;;;;10348652;28;20060;-46
2023/09/18 18:54:35;;;;;;;;;;;22.70;71.50;;;;;;10342509;28;19934;-45
2023/09/18 18:59:39;;;;;;;;;;;22.70;71.50;;;;;;10332185;28;19955;-48
2023/09/18 19:04:42;;;;;;;;;;;22.70;71.50;;;;;;10350068;28;20023;-48
2023/09/18 19:09:44;;;;;;;;;;;22.70;71.40;;;;;;10352029;28;20841;-46
2023/09/18 19:14:49;;;;;;;;;;;22.70;71.40;;;;;;10349192;28;20141;-49
2023/09/18 19:19:51;;;;;;;;;;;22.70;71.30;;;;;;10349485;28;19941;-48
2023/09/18 19:24:52;;;;;;;;;;;22.80;71.30;;;;;;10352421;28;19934;-49
2023/09/18 19:29:54;;;;;;;;;;;22.70;71.20;;;;;;10353042;28;19941;-49
2023/09/18 19:34:57;;;;;;;;;;;22.80;71.30;;;;;;10331238;28;19934;-47
2023/09/18 19:39:58;;;;;;;;;;;22.80;71.10;;;;;;10349471;28;19941;-46
2023/09/18 19:45:01;;;;;;;;;;;22.80;71.00;;;;;;10342215;28;19934;-48
2023/09/18 19:50:03;;;;;;;;;;;22.80;71.00;;;;;;10347364;28;19944;-45
2023/09/18 19:55:06;;;;;;;;;;;22.80;70.70;;;;;;10330004;28;20410;-48
2023/09/18 20:00:08;;;;;;;;;;;22.70;70.90;;;;;;10351559;28;19934;-48
2023/09/18 20:05:09;;;;;;;;;;;22.80;71.10;;;;;;10344782;28;19934;-48
2023/09/18 20:10:17;;;;;;;;;;;22.70;70.80;;;;;;10340150;28;20379;-47
2023/09/18 20:15:19;;;;;;;;;;;22.70;70.90;;;;;;10348456;28;19934;-46
2023/09/18 20:20:21;;;;;;;;;;;22.70;70.90;;;;;;10338133;28;20385;-48
2023/09/18 20:25:23;;;;;;;;;;;22.70;70.80;;;;;;10348767;28;19934;-50
2023/09/18 20:30:25;;;;;;;;;;;22.70;70.80;;;;;;10324921;28;19972;-48
2023/09/18 20:35:29;;;;;;;;;;;22.70;70.70;;;;;;10321165;28;20396;-49
2023/09/18 20:40:30;;;;;;;;;;;22.60;70.80;;;;;;10320744;28;19977;-46
2023/09/18 20:45:32;;;;;;;;;;;22.60;70.90;;;;;;10344597;28;21245;-52
2023/09/18 20:50:35;;;;;;;;;;;22.60;70.90;;;;;;10347867;28;19945;-49
2023/09/18 20:55:39;;;;;;;;;;;22.60;71.00;;;;;;10326368;28;20027;-45
2023/09/18 21:00:41;;;;;;;;;;;22.60;71.00;;;;;;10336857;28;19934;-48
2023/09/18 21:05:42;;;;;;;;;;;22.60;70.90;;;;;;10348618;28;20308;-46
2023/09/18 21:10:44;;;;;;;;;;;22.60;71.00;;;;;;10340261;28;20057;-48
2023/09/18 21:15:47;;;;;;;;;;;22.60;71.00;;;;;;10347621;28;19945;-50
2023/09/18 21:20:51;;;;;;;;;;;22.50;71.00;;;;;;10348339;28;19933;-49
2023/09/18 21:25:53;;;;;;;;;;;22.60;71.00;;;;;;10336680;28;19934;-47
2023/09/18 21:31:05;;;;;;;;;;;22.50;71.00;;;;;;10325201;28;19934;-50
2023/09/18 21:36:20;;;;;;;;;;;22.50;71.10;;;;;;10345725;28;19933;-46
2023/09/18 21:41:22;;;;;;;;;;;22.50;71.00;;;;;;10341685;28;19933;-49
2023/09/18 21:46:25;;;;;;;;;;;22.50;70.90;;;;;;10350967;28;19933;-51
2023/09/18 21:51:27;;;;;;;;;;;22.50;70.80;;;;;;10331101;28;20316;-45
2023/09/18 21:56:28;;;;;;;;;;;22.40;70.70;;;;;;10330426;28;19933;-49
2023/09/18 22:01:30;;;;;;;;;;;22.40;70.40;;;;;;10352688;28;19941;-48
2023/09/18 22:06:32;;;;;;;;;;;22.40;70.50;;;;;;10357064;28;19957;-48
2023/09/18 22:11:34;;;;;;;;;;;22.30;70.40;;;;;;10350930;28;19934;-47
2023/09/18 22:16:36;;;;;;;;;;;22.30;70.30;;;;;;10355389;28;19933;-48
2023/09/18 22:21:37;;;;;;;;;;;22.30;70.30;;;;;;10351262;28;19976;-46
2023/09/18 22:26:39;;;;;;;;;;;22.30;70.10;;;;;;10349557;28;19934;-49
2023/09/18 22:31:41;;;;;;;;;;;22.30;70.20;;;;;;10351236;28;19933;-50
2023/09/18 22:36:43;;;;;;;;;;;22.30;70.00;;;;;;10329793;28;20305;-47
2023/09/18 22:41:49;;;;;;;;;;;22.30;69.90;;;;;;10351104;28;19934;-47
2023/09/18 22:47:10;;;;;;;;;;;22.30;69.80;;;;;;10350516;28;21062;-68
2023/09/18 22:52:30;;;;;;;;;;;22.30;69.70;;;;;;10346953;28;19958;-45
2023/09/18 22:57:34;;;;;;;;;;;22.20;69.50;;;;;;10362099;28;20307;-43
2023/09/18 23:02:42;;;;;;;;;;;22.30;69.60;;;;;;10369304;28;19933;-48
2023/09/18 23:07:49;;;;;;;;;;;22.30;69.50;;;;;;10353189;28;20290;-48
2023/09/18 23:12:55;;;;;;;;;;;22.20;69.30;;;;;;10353260;28;19944;-46
2023/09/18 23:17:58;;;;;;;;;;;22.20;69.30;;;;;;10338167;28;20031;-46
2023/09/18 23:23:02;;;;;;;;;;;22.20;69.10;;;;;;10353041;28;19933;-49
2023/09/18 23:28:05;;;;;;;;;;;22.20;69.10;;;;;;10350467;28;19933;-45
2023/09/18 23:33:10;;;;;;;;;;;22.20;68.90;;;;;;10354454;28;19934;-48
2023/09/18 23:38:12;;;;;;;;;;;22.20;68.80;;;;;;10335110;28;19985;-45
2023/09/18 23:43:15;;;;;;;;;;;22.20;68.70;;;;;;10352821;28;19934;-48
2023/09/18 23:48:18;;;;;;;;;;;22.20;68.60;;;;;;10352416;28;20092;-46
2023/09/18 23:53:20;;;;;;;;;;;22.20;68.50;;;;;;10342922;28;19993;-51
2023/09/18 23:58:27;;;;;;;;;;;22.30;68.50;;;;;;10351322;28;34526;-50
